Hoppa till innehåll

METAR Reports and Weather - ESGG

Nedan listas information från vald flygplats. Andra METARs finns längre ned på sidan. Kontakta oss om någon saknas eller skriv in egen ICAO-kod.

Other METARs of interest

Klicka på önskad rubrik nedan för att visa nuvarande väder för den platsen.

Distance from station: NE 27kmESGG - Göteborg (Landvetter)
Updated: 2021-12-07 15:20
 Wind from ESE
Wind: ESE 19 km/h
Temperature: -5°C
Wind Chill: -12°C
Dew Point: -7°C
Humidity: 86%
Barometer: 1012 hPa
Summary: Light Snow
Clouds: Overcast
Visibility: 10 km
Cloud details: Few Clouds 732 m
Overcast 1128 m
2021/12/07 14:20 ESGG 071420Z 11010KT 9999 -SN FEW024 OVC037 M05/M07 Q1012
Light snow, Overcast
Light snow
Overcast
  Visa detaljer för Göteborg (Landvetter)
Distance from station: N 28kmESGP - Göteborg (Säve)
Updated: 2021-12-07 15:52
 
unable to load ESGP data RC=404 Not Found
unable to load ESGP data RC=404 Not Found
  Visa detaljer för Göteborg (Säve)
Distance from station: NE 419kmESSA - Stockholm (Arlanda)
Updated: 2021-12-07 15:20
 Wind from N
Wind: N 4 km/h
Temperature: -15°C
Dew Point: -16°C
Humidity: 92%
Barometer: 1017 hPa
Summary: Clear
Visibility: greater than 10 km
2021/12/07 14:20 ESSA 071420Z 36002KT CAVOK M15/M16 Q1017 NOSIG
Clear
Clear
  Visa detaljer för Stockholm (Arlanda)
Distance from station: ENE 404kmESSB - Stockholm (Bromma)
Updated: 2021-12-07 15:20
 Wind from calm
Wind: Calm
Temperature: -12°C
Dew Point: -13°C
Humidity: 92%
Barometer: 1018 hPa
Summary: Clear
Visibility: greater than 10 km
2021/12/07 14:20 ESSB 071420Z 00000KT CAVOK M12/M13 Q1018
Clear
Clear
  Visa detaljer för Stockholm (Bromma)
Distance from station: ENE 323kmESKN - Stockholm (Skavsta)
Updated: 2021-12-07 15:20
 Wind from NNE
Wind: NNE 9 km/h
Temperature: -13°C
Wind Chill: -18°C
Dew Point: -15°C
Humidity: 85%
Barometer: 1018 hPa
Summary: Clear
Visibility: greater than 10 km
2021/12/07 14:20 ESKN 071420Z 02005KT CAVOK M13/M15 Q1018
Clear
Clear
  Visa detaljer för Stockholm (Skavsta)
Distance from station: SSE 238kmESMS - Malmö flygplats (Sturup)
Updated: 2021-12-07 15:20
 Wind from SE
Wind: SE 19 km/h
Temperature: 1°C
Wind Chill: -4°C
Dew Point: -5°C
Humidity: 65%
Barometer: 1012 hPa
Clouds: Overcast
Visibility: 10 km
Cloud details: Overcast 884 m
2021/12/07 14:20 ESMS 071420Z 13010KT 9999 OVC029 01/M05 Q1012
Overcast
Overcast
  Visa detaljer för Malmö flygplats (Sturup)
Distance from station: E 382kmESSV - Visby flygplats
Updated: 2021-12-07 15:20
 Wind from SE
Wind: SE 6 km/h
Temperature: -6°C
Dew Point: -7°C
Humidity: 93%
Barometer: 1017 hPa
Clouds: Few Clouds
Visibility: 10 km
Cloud details: Few Clouds 792 m
2021/12/07 14:20 ESSV 071420Z 14003KT 9999 FEW026 M06/M07 Q1017
Few Clouds
Few Clouds
  Visa detaljer för Visby flygplats
Distance from station: NNE 92kmESGT - Trollhättan
Updated: 2021-12-07 15:20
 Wind from SSE
Wind: SSE 15 km/h
Temperature: -3°C
Wind Chill: -8°C
Dew Point: -6°C
Humidity: 80%
Barometer: 1014 hPa
Summary: Light Snow
Clouds: Mostly cloudy
Visibility: 10 km
Cloud details: Mostly cloudy 1341 m
2021/12/07 14:20 ESGT 071420Z 16008KT 120V190 9999 -SN BKN044 M03/M06 Q1014
Light snow, Mostly cloudy
Light snow
Mostly cloudy
  Visa detaljer för Trollhättan
Distance from station: ENE 129kmESGJ - Jönköpings flygplats
Updated: 2021-12-07 15:20
 Wind from SE
Wind: SE 15 km/h
Temperature: -5°C
Wind Chill: -11°C
Dew Point: -7°C
Humidity: 86%
Barometer: 1014 hPa
Summary: Snow Grains
Clouds: Mostly cloudy
Visibility: 10 km
Cloud details: Partly cloudy 701 m
Mostly cloudy 1036 m
2021/12/07 14:20 ESGJ 071420Z 13008KT 9999 SG SCT023 BKN034 M05/M07 Q1014
Snow grains, Mostly cloudy
Snow grains
Mostly cloudy
  Visa detaljer för Jönköpings flygplats
Distance from station: NNE 229kmESOK - Karlstad
Updated: 2021-12-07 15:20
 Wind from NE
Wind: NE 11 km/h
Temperature: -11°C
Wind Chill: -17°C
Dew Point: -12°C
Humidity: 92%
Barometer: 1015 hPa
Clouds: Mostly cloudy
Visibility: 10 km
Cloud details: Few Clouds 396 m
Mostly cloudy 1311 m
2021/12/07 14:20 ESOK 071420Z 05006KT 9999 FEW013 BKN043 M11/M12 Q1015
Mostly cloudy
Mostly cloudy
  Visa detaljer för Karlstad
Distance from station: N 643kmESNZ - Östersund (Frösön)
Updated: 2021-12-07 15:20
 Wind from SE
Wind: SE 26 km/h
Temperature: -11°C
Wind Chill: -21°C
Dew Point: -15°C
Humidity: 73%
Barometer: 1011 hPa
Clouds: Overcast
Visibility: 10 km
Cloud details: Overcast 1036 m
2021/12/07 14:20 ESNZ 071420Z 13014KT 9999 OVC034 M11/M15 Q1011
Overcast
Overcast
  Visa detaljer för Östersund (Frösön)
Distance from station: SSE 216kmEKCH - Köpenhamn (Kastrup)
Updated: 2021-12-07 09:20
NOT Current
 
2021/12/07 08:20

  Visa detaljer för Köpenhamn (Kastrup)
Distance from station: SW 263kmEKBI - Billund Airport
Updated: 2021-12-07 02:20
NOT Current
 
2021/12/07 01:20

  Visa detaljer för Billund Airport
Distance from station: N 302kmENGM - Oslo (Gardermoen)
Updated: 2021-12-07 15:20
 Wind from NNE
Wind: NNE 7 km/h
Temperature: -11°C
Wind Chill: -16°C
Dew Point: -13°C
Humidity: 85%
Barometer: 1014 hPa
Summary: Nearby Showers
Clouds: Mostly cloudy
Visibility: 10 km
Cloud details: Few Clouds 183 m
Mostly cloudy 366 m
2021/12/07 14:20 ENGM 071420Z 02004KT 9999 VCSH FEW006 BKN012 M11/M13 Q1014 NOSIG
Nearby showers, Mostly cloudy
Nearby showers
Mostly cloudy
  Visa detaljer för Oslo (Gardermoen)
Distance from station: NE 540kmEFMA - Mariehamn / Åland
Updated: 2021-12-07 15:20
 Wind from NNW
Wind: NNW 2 km/h
Temperature: -14°C
Dew Point: -15°C
Humidity: 92%
Barometer: 1018 hPa
Summary: Clear
Visibility: greater than 10 km
2021/12/07 14:20 EFMA 071420Z AUTO 34001KT CAVOK M14/M15 Q1018
Clear
Clear
  Visa detaljer för Mariehamn / Åland
Distance from station: S 558kmEDDT - Berlin (Tegel), Germany
Updated: 2021-12-07 15:53
 
unable to load EDDT data RC=404 Not Found
unable to load EDDT data RC=404 Not Found
  Visa detaljer för Berlin (Tegel), Germany
Distance from station: SW 737kmEHAM - Amsterdam (Schiphol)
Updated: 2021-12-07 15:25
 Wind from SE
Wind: SE 22 km/h
Temperature: 5°C
Wind Chill: 1°C
Dew Point: 2°C
Humidity: 81%
Barometer: 1003 hPa
Summary: Clear
Visibility: greater than 10 km
2021/12/07 14:25 EHAM 071425Z 14012KT CAVOK 05/02 Q1003 NOSIG
Clear
Clear
  Visa detaljer för Amsterdam (Schiphol)
Distance from station: ENE 808kmEFHK - Helsingfors (Vantaa)
Updated: 2021-12-07 15:20
 Wind from N
Wind: N 6 km/h
Temperature: -17°C
Dew Point: -19°C
Humidity: 85%
Barometer: 1016 hPa
Clouds: Few Clouds
Visibility: 10 km
Cloud details: Few Clouds 1280 m
2021/12/07 14:20 EFHK 071420Z 35003KT 9999 FEW042 M17/M19 Q1016 NOSIG
Few Clouds
Few Clouds
  Visa detaljer för Helsingfors (Vantaa)
Distance from station: SSW 537kmEDDW - Bremen
Updated: 2021-12-07 15:20
 Wind from SSE
Wind: SSE 13 km/h
Temperature: 4°C
Wind Chill: 1°C
Dew Point: 3°C
Humidity: 93%
Barometer: 1008 hPa
Clouds: Mostly cloudy
Visibility: 8 km
Cloud details: Mostly cloudy 305 m
2021/12/07 14:20 EDDW 071420Z 16007KT 8000 BKN010 04/03 Q1008 TEMPO BKN009
Mostly cloudy
Mostly cloudy
  Visa detaljer för Bremen
Distance from station: SSW 861kmEDDF - Frankfurt am Main
Updated: 2021-12-07 15:20
 Wind from SSW
Wind: SSW 15 km/h
Temperature: 6°C
Wind Chill: 3°C
Dew Point: 0°C
Humidity: 66%
Barometer: 1011 hPa
Clouds: Mostly cloudy
Visibility: 10 km
Cloud details: Few Clouds 792 m
Mostly cloudy 1067 m
2021/12/07 14:20 EDDF 071420Z 21008KT 180V240 9999 FEW026 BKN035 06/M00 Q1011 NOSIG
Mostly cloudy
Mostly cloudy
  Visa detaljer för Frankfurt am Main
Distance from station: SW 880kmEBBR - Bryssel international
Updated: 2021-12-07 15:20
 Wind from SSE
Wind: SSE 26 km/h
Temperature: 5°C
Wind Chill: 1°C
Dew Point: 2°C
Humidity: 81%
Barometer: 1004 hPa
Clouds: Few Clouds
Visibility: 10 km
Cloud details: Few Clouds 366 m
2021/12/07 14:20 EBBR 071420Z 16014KT 9999 FEW012 05/02 Q1004 NOSIG
Few Clouds
Few Clouds
  Visa detaljer för Bryssel international
Distance from station: SW 738kmEHAM - Amsterdam (Schiphol)
Updated: 2021-12-07 15:25
 Wind from SE
Wind: SE 22 km/h
Temperature: 5°C
Wind Chill: 1°C
Dew Point: 2°C
Humidity: 81%
Barometer: 1003 hPa
Summary: Clear
Visibility: greater than 10 km
2021/12/07 14:25 EHAM 071425Z 14012KT CAVOK 05/02 Q1003 NOSIG
Clear
Clear
  Visa detaljer för Amsterdam (Schiphol)
Distance from station: SW 1044kmEGLL - London (Heathrow)
Updated: 2021-12-07 13:50
NOT Current
 Wind from SSE
Wind: SSE 26 km/h
Temperature: 7°C
Wind Chill: 3°C
Dew Point: 6°C
Humidity: 93%
Barometer: 993 hPa
Summary: Light rain
Clouds: Overcast
Visibility: 10 km
Cloud details: Overcast 335 m
2021/12/07 12:50 EGLL 071250Z AUTO 15014KT 9999 -RA OVC011 07/06 Q0993 TEMPO 16020G30KT
Light rain, Overcast
Light rain
Overcast
  Visa detaljer för London (Heathrow)
Distance from station: SW 1132kmLFPG - Paris (Charles de Gaulle)
Updated: 2021-12-07 15:00
 Wind from SSE
Wind: SSE 26 km/h
Temperature: 7°C
Wind Chill: 3°C
Dew Point: 4°C
Humidity: 81%
Barometer: 1003 hPa
Clouds: Mostly cloudy
Visibility: 10 km
Cloud details: Mostly cloudy 396 m
Mostly cloudy 701 m
2021/12/07 14:00 LFPG 071400Z 16014KT 120V180 9999 BKN013 BKN023 07/04 Q1003 BECMG BKN020
Mostly cloudy
Mostly cloudy
  Visa detaljer för Paris (Charles de Gaulle)
Distance from station: SSW 1142kmLSZH - Zürich Airport
Updated: 2021-12-07 15:20
 Wind from SE
Wind: SE 9 km/h
Temperature: 5°C
Wind Chill: 3°C
Dew Point: 0°C
Humidity: 70%
Barometer: 1011 hPa
Clouds: Few Clouds
Visibility: 10 km
Cloud details: Few Clouds 762 m
2021/12/07 14:20 LSZH 071420Z 13005KT 9999 FEW025 05/00 Q1011 NOSIG
Few Clouds
Few Clouds
  Visa detaljer för Zürich Airport
Distance from station: S 1749kmLIRF - Rome Airport (Fiumicino - Leonardo da Vinci)
Updated: 2021-12-07 15:20
 Wind from NNW
Wind: NNW 17 km/h
Temperature: 12°C
Dew Point: 1°C
Humidity: 47%
Barometer: 1012 hPa
Clouds: Few Clouds
Visibility: 10 km
Cloud details: Few Clouds 1524 m
2021/12/07 14:20 LIRF 071420Z 33009KT 9999 FEW050 12/01 Q1012 NOSIG
Few Clouds
Few Clouds
  Visa detaljer för Rome Airport (Fiumicino - Leonardo da Vinci)
Distance from station: SE 2679kmLTAI - Antalya
Updated: 2021-12-07 14:50
 Wind from S
Wind: S 33 km/h
Temperature: 18°C
Dew Point: 12°C
Humidity: 68%
Barometer: 1003 hPa
Clouds: Mostly cloudy
Visibility: 10 km
Cloud details: Few Clouds 610 m
Mostly cloudy 914 m
2021/12/07 13:50 LTAI 071350Z 18018KT 9999 FEW020CB BKN030 18/12 Q1003 RETSRA BECMG 15028G45KT RMK RWY18C 17020KT RWY36R 17019KT 140V200 RWY18L 18018G28KT
Mostly cloudy
Mostly cloudy
  Visa detaljer för Antalya
Distance from station: WSW 6074kmKJFK - New Your (JFK)
Updated: 2021-12-07 13:51
NOT Current
 Wind from WSW
Wind: WSW 26 km/h
Temperature: 3°C
Wind Chill: -2°C
Dew Point: -5°C
Humidity: 56%
Barometer: 1021.7 hPa
Clouds: Mostly cloudy
Visibility: 16 km
Cloud details: Few Clouds 1128 m
Partly cloudy 5791 m
Mostly cloudy 7925 m
2021/12/07 12:51 KJFK 071251Z 25014KT 10SM FEW037 SCT190 BKN260 03/M05 A3017 RMK AO2 SLP216 T00331050
Mostly cloudy
Mostly cloudy
  Visa detaljer för New Your (JFK)
Distance from station: WSW 8848kmKLAX - Los Angeles International Airport
Updated: 2021-12-07 14:53
 Wind from ENE
Wind: ENE 11 km/h
Temperature: 14°C
Dew Point: 11°C
Humidity: 82%
Barometer: 1014.6 hPa
Summary: Light rain
Clouds: Overcast
Visibility: 13 km
Cloud details: Partly cloudy 975 m
Mostly cloudy 2743 m
Overcast 3353 m
2021/12/07 13:53 KLAX 071353Z 07006KT 8SM -RA SCT032 BKN090 OVC110 14/11 A2996 RMK AO2 SLP145 P0001 T01440111
Light rain, Overcast
Light rain
Overcast
  Visa detaljer för Los Angeles International Airport
Distance from station: SE 4968kmOMDB - Dubai International Airport
Updated: 2021-12-07 14:00
NOT Current
 Wind from N
Wind: N 19 km/h
Temperature: 25°C
Dew Point: 16°C
Humidity: 57%
Barometer: 1017 hPa
Clouds: Few Clouds
Visibility: 10 km
Cloud details: Few Clouds 1219 m
2021/12/07 13:00 OMDB 071300Z 35010KT 9999 FEW040 25/16 Q1017 NOSIG
Few Clouds
Few Clouds
  Visa detaljer för Dubai International Airport
Distance from station: ESE 8570kmRJTT - Tokyo International Airport
Updated: 2021-12-07 15:00
 Wind from N
Wind: N 37 km/h
Temperature: 12°C
Dew Point: 10°C
Humidity: 88%
Barometer: 1015 hPa
Summary: Light rain, Showers
Clouds: Mostly cloudy
Visibility: 10 km
Cloud details: Few Clouds 305 m
Partly cloudy 396 m
Mostly cloudy 1829 m
2021/12/07 14:00 RJTT 071400Z 35020KT 9999 -SHRA FEW010 SCT013 BKN060 12/10 Q1015 TEMPO 35024G34KT 4000 RA BR FEW005 BKN008
Light rain, Showers, Mostly cloudy
Light rain
Showers
Mostly cloudy
  Visa detaljer för Tokyo International Airport
Distance from station: ESE 7125kmZBAA - Peking (Beijing Capital)
Updated: 2021-12-07 15:00
 Wind from N
Wind: N 4 km/h
Temperature: -3°C
Dew Point: -6°C
Humidity: 80%
Barometer: 1033 hPa
Summary: Clear
Visibility: greater than 10 km
2021/12/07 14:00 ZBAA 071400Z 36001MPS CAVOK M03/M06 Q1033 NOSIG
Clear
Clear
  Visa detaljer för Peking (Beijing Capital)
WEATHER TRIVIA -  ExtremesA record low of - 128.6 degrees F was recorded at Vostok, Antarctica.